createdAt,value
2018-02-24T00:00:16.517Z,0.60
2018-02-24T00:00:48.190Z,0.70
2018-02-24T00:01:19.828Z,0.60
2018-02-24T00:01:52.282Z,0.60
2018-02-24T00:02:23.916Z,0.60
2018-02-24T00:02:55.569Z,0.60
2018-02-24T00:03:27.214Z,0.60
2018-02-24T00:03:58.846Z,0.60
2018-02-24T00:04:30.484Z,0.60
2018-02-24T00:05:02.104Z,0.60
2018-02-24T00:05:33.724Z,0.60
2018-02-24T00:06:05.368Z,0.60
2018-02-24T00:06:37.025Z,0.60
2018-02-24T00:07:08.667Z,0.60
2018-02-24T00:07:40.334Z,0.60
2018-02-24T00:08:11.962Z,0.50
2018-02-24T00:08:43.593Z,0.60
2018-02-24T00:09:15.255Z,0.60
2018-02-24T00:09:46.877Z,0.60
2018-02-24T00:10:18.485Z,0.60
2018-02-24T00:10:50.121Z,0.60
2018-02-24T00:11:21.767Z,0.60
2018-02-24T00:11:53.405Z,0.60
2018-02-24T00:12:25.053Z,0.60
2018-02-24T00:12:56.667Z,0.60
2018-02-24T00:13:28.276Z,0.50
2018-02-24T00:13:59.912Z,0.60
2018-02-24T00:14:31.542Z,0.50
2018-02-24T00:15:03.195Z,0.50
2018-02-24T00:15:34.812Z,0.50
2018-02-24T00:16:06.429Z,0.50
2018-02-24T00:16:38.049Z,0.60
2018-02-24T00:17:09.701Z,0.50
2018-02-24T00:17:41.315Z,0.50
2018-02-24T00:18:12.946Z,0.50
2018-02-24T00:18:44.571Z,0.50
2018-02-24T00:19:16.189Z,0.40
2018-02-24T00:19:47.841Z,0.50
2018-02-24T00:20:19.442Z,0.50
2018-02-24T00:20:51.051Z,0.50
2018-02-24T00:21:22.671Z,0.50
2018-02-24T00:21:54.307Z,0.50
2018-02-24T00:22:25.931Z,0.60
2018-02-24T00:22:57.569Z,0.50
2018-02-24T00:23:29.263Z,0.50
2018-02-24T00:24:00.882Z,0.50
2018-02-24T00:24:32.502Z,0.50
2018-02-24T00:25:04.121Z,0.50
2018-02-24T00:25:35.754Z,0.50
2018-02-24T00:26:07.394Z,0.50
2018-02-24T00:26:39.021Z,0.50
2018-02-24T00:27:10.643Z,0.50
2018-02-24T00:27:42.243Z,0.50
2018-02-24T00:28:13.885Z,0.50
2018-02-24T00:28:45.494Z,0.50
2018-02-24T00:29:17.125Z,0.50
2018-02-24T00:29:48.754Z,0.50
2018-02-24T00:30:20.368Z,0.50
2018-02-24T00:30:56.984Z,0.50
2018-02-24T00:31:28.592Z,0.40
2018-02-24T00:32:00.221Z,0.50
2018-02-24T00:32:31.841Z,0.50
2018-02-24T00:33:03.470Z,0.50
2018-02-24T00:33:35.084Z,0.50
2018-02-24T00:34:06.709Z,0.50
2018-02-24T00:34:38.333Z,0.50
2018-02-24T00:35:09.997Z,0.50
2018-02-24T00:35:41.626Z,0.50
2018-02-24T00:36:13.229Z,0.50
2018-02-24T00:36:44.853Z,0.40
2018-02-24T00:37:16.493Z,0.50
2018-02-24T00:37:48.143Z,0.40
2018-02-24T00:38:19.751Z,0.40
2018-02-24T00:38:51.369Z,0.50
2018-02-24T00:39:22.984Z,0.40
2018-02-24T00:39:54.657Z,0.50
2018-02-24T00:40:26.290Z,0.40
2018-02-24T00:40:57.909Z,0.40
2018-02-24T00:41:29.529Z,0.40
2018-02-24T00:42:01.145Z,0.40
2018-02-24T00:42:32.768Z,0.40
2018-02-24T00:43:04.421Z,0.40
2018-02-24T00:43:36.101Z,0.40
2018-02-24T00:44:07.729Z,0.50
2018-02-24T00:44:39.364Z,0.40
2018-02-24T00:45:10.984Z,0.40
2018-02-24T00:45:42.781Z,0.40
2018-02-24T00:46:14.440Z,0.40
2018-02-24T00:46:46.075Z,0.40
2018-02-24T00:47:17.724Z,0.40
2018-02-24T00:47:49.366Z,0.40
2018-02-24T00:48:21.017Z,0.50
2018-02-24T00:48:52.666Z,0.40
2018-02-24T00:49:24.360Z,0.40
2018-02-24T00:49:56.013Z,0.40
2018-02-24T00:50:27.648Z,0.30
2018-02-24T00:50:59.343Z,0.40
2018-02-24T00:51:30.980Z,0.40
2018-02-24T00:52:02.605Z,0.40
2018-02-24T00:52:34.225Z,0.30
2018-02-24T00:53:05.882Z,0.30
2018-02-24T00:53:37.537Z,0.40
2018-02-24T00:54:09.214Z,0.30
2018-02-24T00:54:40.894Z,0.30
2018-02-24T00:55:12.530Z,0.30
2018-02-24T00:55:44.197Z,0.40
2018-02-24T00:56:15.835Z,0.40
2018-02-24T00:56:47.523Z,0.40
2018-02-24T00:57:19.169Z,0.30
2018-02-24T00:57:50.826Z,0.40
2018-02-24T00:58:22.453Z,0.40
2018-02-24T00:58:54.136Z,0.40
2018-02-24T00:59:25.778Z,0.30
2018-02-24T00:59:57.421Z,0.30
2018-02-24T01:00:29.042Z,0.40
2018-02-24T01:01:00.661Z,0.30
2018-02-24T01:01:32.308Z,0.40
2018-02-24T01:02:03.991Z,0.30
2018-02-24T01:02:35.605Z,0.30
2018-02-24T01:03:07.229Z,0.30
2018-02-24T01:03:38.852Z,0.30
2018-02-24T01:04:10.537Z,0.30
2018-02-24T01:04:42.185Z,0.30
2018-02-24T01:05:13.813Z,0.40
2018-02-24T01:05:45.485Z,0.30
2018-02-24T01:06:17.115Z,0.30
2018-02-24T01:06:48.750Z,0.30
2018-02-24T01:07:20.414Z,0.40
2018-02-24T01:07:52.085Z,0.40
2018-02-24T01:08:23.731Z,0.40
2018-02-24T01:08:55.377Z,0.40
2018-02-24T01:09:27.029Z,0.30
2018-02-24T01:09:58.648Z,0.30
2018-02-24T01:10:30.288Z,0.30
2018-02-24T01:11:01.934Z,0.40
2018-02-24T01:11:33.555Z,0.30
2018-02-24T01:12:05.164Z,0.30
2018-02-24T01:12:36.849Z,0.30
2018-02-24T01:13:08.481Z,0.40
2018-02-24T01:13:40.104Z,0.30
2018-02-24T01:14:11.713Z,0.40
2018-02-24T01:14:43.348Z,0.30
2018-02-24T01:15:14.985Z,0.40
2018-02-24T01:15:46.716Z,0.30
2018-02-24T01:16:18.360Z,0.30
2018-02-24T01:16:50.001Z,0.30
2018-02-24T01:17:21.635Z,0.30
2018-02-24T01:17:53.252Z,0.30
2018-02-24T01:18:24.904Z,0.30
2018-02-24T01:18:56.518Z,0.30
2018-02-24T01:19:28.154Z,0.30
2018-02-24T01:19:59.803Z,0.20
2018-02-24T01:20:31.441Z,0.30
2018-02-24T01:21:03.101Z,0.30
2018-02-24T01:21:34.713Z,0.30
2018-02-24T01:22:06.331Z,0.30
2018-02-24T01:22:38.005Z,0.20
2018-02-24T01:23:09.689Z,0.20
2018-02-24T01:23:41.300Z,0.20
2018-02-24T01:24:12.948Z,0.20
2018-02-24T01:24:44.593Z,0.30
2018-02-24T01:25:16.231Z,0.30
2018-02-24T01:25:47.847Z,0.30
2018-02-24T01:26:19.468Z,0.20
2018-02-24T01:26:51.139Z,0.30
2018-02-24T01:27:22.771Z,0.30
2018-02-24T01:27:54.369Z,0.20
2018-02-24T01:28:26.003Z,0.30
2018-02-24T01:28:57.642Z,0.30
2018-02-24T01:29:29.264Z,0.30
2018-02-24T01:30:00.892Z,0.30
2018-02-24T01:30:32.509Z,0.20
2018-02-24T01:31:04.156Z,0.30
2018-02-24T01:31:35.801Z,0.30
2018-02-24T01:32:07.425Z,0.30
2018-02-24T01:32:39.073Z,0.20
2018-02-24T01:33:10.725Z,0.20
2018-02-24T01:33:42.313Z,0.20
2018-02-24T01:34:13.937Z,0.20
2018-02-24T01:34:45.585Z,0.20
2018-02-24T01:35:17.229Z,0.20
2018-02-24T01:35:48.885Z,0.20
2018-02-24T01:36:20.484Z,0.20
2018-02-24T01:36:52.086Z,0.20
2018-02-24T01:37:23.699Z,0.20
2018-02-24T01:37:55.328Z,0.20
2018-02-24T01:38:26.958Z,0.20
2018-02-24T01:38:58.571Z,0.20
2018-02-24T01:39:30.180Z,0.20
2018-02-24T01:40:01.785Z,0.20
2018-02-24T01:40:33.408Z,0.20
2018-02-24T01:41:05.025Z,0.20
2018-02-24T01:41:36.642Z,0.20
2018-02-24T01:42:08.277Z,0.20
2018-02-24T01:42:39.899Z,0.20
2018-02-24T01:43:11.518Z,0.20
2018-02-24T01:43:43.139Z,0.20
2018-02-24T01:44:14.763Z,0.20
2018-02-24T01:44:46.386Z,0.20
2018-02-24T01:45:17.997Z,0.20
2018-02-24T01:45:49.600Z,0.20
2018-02-24T01:46:21.257Z,0.20
2018-02-24T01:46:52.887Z,0.20
2018-02-24T01:47:24.531Z,0.30
2018-02-24T01:47:56.155Z,0.20
2018-02-24T01:48:27.776Z,0.20
2018-02-24T01:48:59.393Z,0.20
2018-02-24T01:49:31.001Z,0.20
2018-02-24T01:50:02.651Z,0.10
2018-02-24T01:50:40.455Z,0.20
2018-02-24T01:51:12.084Z,0.10
2018-02-24T01:51:43.713Z,0.10
2018-02-24T01:52:15.337Z,0.10
2018-02-24T01:52:46.947Z,0.20
2018-02-24T01:53:18.579Z,0.10
2018-02-24T01:53:50.196Z,0.20
2018-02-24T01:54:21.843Z,0.20
2018-02-24T01:54:53.473Z,0.10
2018-02-24T01:55:25.087Z,0.10
2018-02-24T01:55:56.728Z,0.20
2018-02-24T01:56:28.369Z,0.10
2018-02-24T01:56:59.994Z,0.10
2018-02-24T01:57:31.617Z,0.10
2018-02-24T01:58:03.257Z,0.10
2018-02-24T01:58:34.862Z,0.10
2018-02-24T01:59:06.489Z,0.10
2018-02-24T01:59:38.108Z,0.10
2018-02-24T02:00:09.717Z,0.10
2018-02-24T02:00:41.395Z,0.10
2018-02-24T02:01:13.027Z,0.10
2018-02-24T02:01:44.679Z,0.10
2018-02-24T02:02:16.303Z,0.00
2018-02-24T02:02:47.907Z,0.10
2018-02-24T02:03:19.536Z,0.00
2018-02-24T02:03:51.194Z,0.10
2018-02-24T02:04:22.813Z,0.10
2018-02-24T02:04:54.441Z,0.10
2018-02-24T02:05:26.057Z,0.10
2018-02-24T02:05:57.701Z,0.10
2018-02-24T02:06:29.370Z,0.10
2018-02-24T02:07:01.017Z,0.10
2018-02-24T02:07:32.635Z,0.00
2018-02-24T02:08:04.260Z,0.10
2018-02-24T02:08:35.879Z,0.00
2018-02-24T02:09:07.511Z,0.10
2018-02-24T02:09:39.133Z,0.10
2018-02-24T02:10:10.763Z,0.10
2018-02-24T02:10:42.368Z,0.00
2018-02-24T02:11:14.000Z,0.10
2018-02-24T02:11:45.627Z,0.10
2018-02-24T02:12:17.271Z,0.10
2018-02-24T02:12:48.922Z,0.10
2018-02-24T02:13:20.557Z,0.00
2018-02-24T02:13:52.194Z,0.10
2018-02-24T02:14:23.816Z,0.10
2018-02-24T02:14:55.450Z,0.00
2018-02-24T02:15:27.068Z,0.10
2018-02-24T02:15:58.704Z,0.10
2018-02-24T02:16:30.313Z,0.10
2018-02-24T02:17:01.943Z,0.10
2018-02-24T02:17:33.572Z,0.10
2018-02-24T02:18:05.201Z,0.00
2018-02-24T02:18:36.834Z,0.10
2018-02-24T02:19:08.453Z,0.00
2018-02-24T02:19:40.069Z,0.10
2018-02-24T02:20:11.741Z,0.00
2018-02-24T02:20:43.361Z,0.00
2018-02-24T02:21:14.985Z,0.10
2018-02-24T02:21:46.608Z,0.00
2018-02-24T02:22:18.240Z,-0.10
2018-02-24T02:22:49.851Z,0.10
2018-02-24T02:23:21.487Z,0.00
2018-02-24T02:23:53.085Z,0.00
2018-02-24T02:24:24.719Z,0.00
2018-02-24T02:24:56.350Z,0.00
2018-02-24T02:25:27.998Z,0.00
2018-02-24T02:25:59.621Z,-0.10
2018-02-24T02:26:31.249Z,0.00
2018-02-24T02:27:02.894Z,-0.10
2018-02-24T02:27:34.517Z,0.00
2018-02-24T02:28:06.140Z,0.00
2018-02-24T02:28:37.794Z,0.00
2018-02-24T02:29:09.399Z,0.00
2018-02-24T02:29:41.023Z,-0.10
2018-02-24T02:30:12.654Z,-0.10
2018-02-24T02:30:44.293Z,0.00
2018-02-24T02:31:15.921Z,0.00
2018-02-24T02:31:47.537Z,-0.10
2018-02-24T02:32:19.159Z,0.00
2018-02-24T02:32:50.782Z,0.00
2018-02-24T02:33:22.420Z,-0.10
2018-02-24T02:33:54.038Z,0.00
2018-02-24T02:34:25.673Z,0.00
2018-02-24T02:34:57.281Z,0.00
2018-02-24T02:35:28.913Z,0.00
2018-02-24T02:36:00.556Z,0.00
2018-02-24T02:36:32.198Z,0.00
2018-02-24T02:37:03.837Z,0.00
2018-02-24T02:37:35.428Z,0.00
2018-02-24T02:38:07.080Z,-0.10
2018-02-24T02:38:38.709Z,0.00
2018-02-24T02:39:10.333Z,0.00
2018-02-24T02:39:41.966Z,-0.10
2018-02-24T02:40:13.588Z,-0.10
2018-02-24T02:40:45.236Z,-0.10
2018-02-24T02:41:16.849Z,0.00
2018-02-24T02:41:48.503Z,0.00
2018-02-24T02:42:20.137Z,0.00
2018-02-24T02:42:51.760Z,0.00
2018-02-24T02:43:23.383Z,-0.10
2018-02-24T02:43:55.008Z,-0.10
2018-02-24T02:44:26.641Z,-0.10
2018-02-24T02:44:58.288Z,-0.10
2018-02-24T02:45:29.937Z,-0.10
2018-02-24T02:46:01.576Z,-0.10
2018-02-24T02:46:33.190Z,-0.10
2018-02-24T02:47:04.801Z,0.00
2018-02-24T02:47:36.455Z,-0.10
2018-02-24T02:48:08.093Z,-0.10
2018-02-24T02:48:39.690Z,-0.20
2018-02-24T02:49:11.347Z,-0.10
2018-02-24T02:49:42.949Z,0.00
2018-02-24T02:50:14.588Z,0.00
2018-02-24T02:50:46.207Z,-0.20
2018-02-24T02:51:17.829Z,-0.10
2018-02-24T02:51:49.442Z,-0.10
2018-02-24T02:52:21.093Z,-0.10
2018-02-24T02:52:52.738Z,-0.10
2018-02-24T02:53:24.379Z,-0.10
2018-02-24T02:53:55.993Z,-0.20
2018-02-24T02:54:27.633Z,-0.10
2018-02-24T02:54:59.261Z,-0.10
2018-02-24T02:55:30.909Z,-0.10
2018-02-24T02:56:02.541Z,-0.20
2018-02-24T02:56:34.195Z,-0.10
2018-02-24T02:57:05.817Z,-0.20
2018-02-24T02:57:37.451Z,-0.20
2018-02-24T02:58:09.073Z,-0.20
2018-02-24T02:58:40.718Z,-0.20
2018-02-24T02:59:12.339Z,-0.10
2018-02-24T02:59:43.962Z,-0.10
2018-02-24T03:00:15.593Z,-0.10
2018-02-24T03:00:47.231Z,-0.20
2018-02-24T03:01:18.899Z,-0.10
2018-02-24T03:01:50.525Z,-0.10
2018-02-24T03:02:22.137Z,-0.10
2018-02-24T03:02:53.773Z,-0.10
2018-02-24T03:03:25.384Z,-0.20
2018-02-24T03:03:57.016Z,-0.20
2018-02-24T03:04:28.634Z,-0.10
2018-02-24T03:05:00.302Z,-0.10
2018-02-24T03:05:31.924Z,-0.20
2018-02-24T03:06:03.535Z,-0.20
2018-02-24T03:06:35.160Z,-0.20
2018-02-24T03:07:06.833Z,-0.20
2018-02-24T03:07:38.462Z,-0.20
2018-02-24T03:08:10.108Z,-0.20
2018-02-24T03:08:41.738Z,-0.20
2018-02-24T03:09:13.368Z,-0.20
2018-02-24T03:09:44.996Z,-0.10
2018-02-24T03:10:16.624Z,-0.20
2018-02-24T03:10:48.240Z,-0.20
2018-02-24T03:11:19.881Z,-0.20
2018-02-24T03:11:51.501Z,-0.20
2018-02-24T03:12:23.115Z,-0.20
2018-02-24T03:12:54.737Z,-0.20
2018-02-24T03:13:26.340Z,-0.20
2018-02-24T03:13:57.959Z,-0.20
2018-02-24T03:14:29.600Z,-0.20
2018-02-24T03:15:01.208Z,-0.20
2018-02-24T03:15:32.876Z,-0.20
2018-02-24T03:16:04.552Z,-0.10
2018-02-24T03:16:36.197Z,-0.20
2018-02-24T03:17:07.816Z,-0.20
2018-02-24T03:17:39.435Z,-0.10
2018-02-24T03:18:11.063Z,-0.20
2018-02-24T03:18:42.694Z,-0.20
2018-02-24T03:19:14.340Z,-0.20
2018-02-24T03:19:45.952Z,-0.20
2018-02-24T03:20:17.553Z,-0.10
2018-02-24T03:20:49.213Z,-0.20
2018-02-24T03:21:20.836Z,-0.20
2018-02-24T03:21:52.471Z,-0.20
2018-02-24T03:22:24.102Z,-0.20
2018-02-24T03:22:55.719Z,-0.20
2018-02-24T03:23:27.345Z,-0.20
2018-02-24T03:23:58.951Z,-0.20
2018-02-24T03:24:30.569Z,-0.10
2018-02-24T03:25:02.174Z,-0.20
2018-02-24T03:25:33.813Z,-0.20
2018-02-24T03:26:05.465Z,-0.20
2018-02-24T03:26:37.093Z,-0.20
2018-02-24T03:27:08.727Z,-0.20
2018-02-24T03:27:40.363Z,-0.20
2018-02-24T03:28:12.011Z,-0.20
2018-02-24T03:28:43.616Z,-0.20
2018-02-24T03:29:15.220Z,-0.20
2018-02-24T03:29:46.877Z,-0.20
2018-02-24T03:30:18.508Z,-0.20
2018-02-24T03:30:50.188Z,-0.20
2018-02-24T03:31:21.837Z,-0.30
2018-02-24T03:31:53.482Z,-0.20
2018-02-24T03:32:25.129Z,-0.20
2018-02-24T03:32:56.770Z,-0.30
2018-02-24T03:33:28.423Z,-0.30
2018-02-24T03:34:00.059Z,-0.30
2018-02-24T03:34:31.677Z,-0.30
2018-02-24T03:35:03.291Z,-0.30
2018-02-24T03:35:34.937Z,-0.30
2018-02-24T03:36:06.568Z,-0.20
2018-02-24T03:36:38.216Z,-0.20
2018-02-24T03:37:09.837Z,-0.20
2018-02-24T03:37:41.452Z,-0.20
2018-02-24T03:38:13.068Z,-0.30
2018-02-24T03:38:44.704Z,-0.30
2018-02-24T03:39:16.379Z,-0.30
2018-02-24T03:39:47.997Z,-0.30
2018-02-24T03:40:19.618Z,-0.20
2018-02-24T03:40:51.233Z,-0.20
2018-02-24T03:41:22.866Z,-0.30
2018-02-24T03:41:54.552Z,-0.30
2018-02-24T03:42:26.192Z,-0.20
2018-02-24T03:42:57.865Z,-0.30
2018-02-24T03:43:29.501Z,-0.30
2018-02-24T03:44:01.132Z,-0.20
2018-02-24T03:44:32.771Z,-0.30
2018-02-24T03:45:04.478Z,-0.20
2018-02-24T03:45:36.148Z,-0.30
2018-02-24T03:46:08.775Z,-0.20
2018-02-24T03:46:40.447Z,-0.20
2018-02-24T03:47:12.084Z,-0.20
2018-02-24T03:47:43.730Z,-0.30
2018-02-24T03:48:15.379Z,-0.20
2018-02-24T03:48:47.025Z,-0.20
2018-02-24T03:49:18.675Z,-0.20
2018-02-24T03:49:50.307Z,-0.20
2018-02-24T03:50:21.964Z,-0.20
2018-02-24T03:50:53.616Z,-0.20
2018-02-24T03:51:25.281Z,-0.30
2018-02-24T03:51:56.921Z,-0.30
2018-02-24T03:52:28.568Z,-0.20
2018-02-24T03:53:00.223Z,-0.30
2018-02-24T03:53:31.833Z,-0.20
2018-02-24T03:54:03.481Z,-0.40
2018-02-24T03:54:35.174Z,-0.30
2018-02-24T03:55:06.798Z,-0.30
2018-02-24T03:55:38.465Z,-0.20
2018-02-24T03:56:10.069Z,-0.20
2018-02-24T03:56:41.698Z,-0.30
2018-02-24T03:57:13.336Z,-0.20
2018-02-24T03:57:44.973Z,-0.20
2018-02-24T03:58:16.611Z,-0.30
2018-02-24T03:58:48.249Z,-0.30
2018-02-24T03:59:19.906Z,-0.30
2018-02-24T03:59:51.534Z,-0.20
2018-02-24T04:00:23.159Z,-0.20
2018-02-24T04:00:54.770Z,-0.30
2018-02-24T04:01:26.413Z,-0.20
2018-02-24T04:01:58.057Z,-0.20
2018-02-24T04:02:29.683Z,-0.30
2018-02-24T04:03:01.331Z,-0.30
2018-02-24T04:03:32.969Z,-0.20
2018-02-24T04:04:04.601Z,-0.20
2018-02-24T04:04:36.261Z,-0.30
2018-02-24T04:05:07.898Z,-0.40
2018-02-24T04:05:39.559Z,-0.30
2018-02-24T04:06:11.204Z,-0.20
2018-02-24T04:06:42.820Z,-0.30
2018-02-24T04:07:14.478Z,-0.30
2018-02-24T04:07:46.113Z,-0.30
2018-02-24T04:08:17.738Z,-0.20
2018-02-24T04:08:49.363Z,-0.30
2018-02-24T04:09:20.990Z,-0.30
2018-02-24T04:09:52.627Z,-0.20
2018-02-24T04:10:24.262Z,-0.30
2018-02-24T04:10:55.923Z,-0.20
2018-02-24T04:11:27.609Z,-0.30
2018-02-24T04:11:59.268Z,-0.30
2018-02-24T04:12:30.898Z,-0.30
2018-02-24T04:13:02.532Z,-0.30
2018-02-24T04:13:34.174Z,-0.40
2018-02-24T04:14:05.847Z,-0.30
2018-02-24T04:14:37.452Z,-0.30
2018-02-24T04:15:09.095Z,-0.30
2018-02-24T04:15:40.741Z,-0.40
2018-02-24T04:16:12.389Z,-0.40
2018-02-24T04:16:44.033Z,-0.30
2018-02-24T04:17:15.648Z,-0.50
2018-02-24T04:17:47.254Z,-0.40
2018-02-24T04:18:18.898Z,-0.40
2018-02-24T04:18:50.540Z,-0.40
2018-02-24T04:19:22.196Z,-0.40
2018-02-24T04:19:53.854Z,-0.30
2018-02-24T04:20:25.456Z,-0.30
2018-02-24T04:20:57.059Z,-0.40
2018-02-24T04:21:28.708Z,-0.40
2018-02-24T04:22:00.367Z,-0.30
2018-02-24T04:22:31.973Z,-0.40
2018-02-24T04:23:03.583Z,-0.40
2018-02-24T04:23:35.176Z,-0.40
2018-02-24T04:24:06.817Z,-0.40
2018-02-24T04:24:38.482Z,-0.40
2018-02-24T04:25:10.072Z,-0.50
2018-02-24T04:25:41.706Z,-0.40
2018-02-24T04:26:13.339Z,-0.50
2018-02-24T04:26:44.965Z,-0.40
2018-02-24T04:27:16.599Z,-0.40
2018-02-24T04:27:48.205Z,-0.40
2018-02-24T04:28:19.824Z,-0.50
2018-02-24T04:28:51.433Z,-0.40
2018-02-24T04:29:23.052Z,-0.50
2018-02-24T04:29:54.689Z,-0.40
2018-02-24T04:30:26.308Z,-0.40
2018-02-24T04:30:57.918Z,-0.40
2018-02-24T04:31:29.542Z,-0.50
2018-02-24T04:32:01.192Z,-0.50
2018-02-24T04:32:32.811Z,-0.50
2018-02-24T04:33:04.428Z,-0.50
2018-02-24T04:33:36.039Z,-0.50
2018-02-24T04:34:07.655Z,-0.50
2018-02-24T04:34:39.277Z,-0.50
2018-02-24T04:35:10.935Z,-0.50
2018-02-24T04:35:42.540Z,-0.40
2018-02-24T04:36:14.193Z,-0.50
2018-02-24T04:36:45.797Z,-0.40
2018-02-24T04:37:17.419Z,-0.50
2018-02-24T04:37:49.032Z,-0.50
2018-02-24T04:38:20.653Z,-0.50
2018-02-24T04:38:52.300Z,-0.50
2018-02-24T04:39:23.905Z,-0.60
2018-02-24T04:39:55.536Z,-0.50
2018-02-24T04:40:27.158Z,-0.60
2018-02-24T04:40:58.798Z,-0.50
2018-02-24T04:41:30.417Z,-0.50
2018-02-24T04:42:02.041Z,-0.50
2018-02-24T04:42:33.660Z,-0.50
2018-02-24T04:43:05.293Z,-0.50
2018-02-24T04:43:36.942Z,-0.50
2018-02-24T04:44:08.587Z,-0.60
2018-02-24T04:44:40.216Z,-0.60
2018-02-24T04:45:11.842Z,-0.60
2018-02-24T04:45:43.488Z,-0.50
2018-02-24T04:46:15.086Z,-0.50
2018-02-24T04:46:46.736Z,-0.50
2018-02-24T04:47:18.360Z,-0.60
2018-02-24T04:47:50.005Z,-0.50
2018-02-24T04:48:21.616Z,-0.50
2018-02-24T04:48:53.267Z,-0.50
2018-02-24T04:49:24.891Z,-0.40
2018-02-24T04:49:56.517Z,-0.40
2018-02-24T04:50:28.156Z,-0.40
2018-02-24T04:50:59.799Z,-0.50
2018-02-24T04:51:31.428Z,-0.50
2018-02-24T04:52:03.033Z,-0.40
2018-02-24T04:52:34.637Z,-0.40
2018-02-24T04:53:06.256Z,-0.50
2018-02-24T04:53:37.901Z,-0.40
2018-02-24T04:54:09.551Z,-0.50
2018-02-24T04:54:41.216Z,-0.50
2018-02-24T04:55:12.866Z,-0.50
2018-02-24T04:55:44.499Z,-0.50
2018-02-24T04:56:16.133Z,-0.50
2018-02-24T04:56:47.787Z,-0.50
2018-02-24T04:57:19.393Z,-0.40
2018-02-24T04:57:51.003Z,-0.50
2018-02-24T04:58:22.608Z,-0.40
2018-02-24T04:58:54.249Z,-0.50
2018-02-24T04:59:25.877Z,-0.40
2018-02-24T04:59:57.511Z,-0.50
2018-02-24T05:00:29.132Z,-0.50
2018-02-24T05:01:00.753Z,-0.40
2018-02-24T05:01:32.375Z,-0.50
2018-02-24T05:02:04.014Z,-0.50
2018-02-24T05:02:35.616Z,-0.60
2018-02-24T05:03:07.226Z,-0.50
2018-02-24T05:03:38.851Z,-0.50
2018-02-24T05:04:10.460Z,-0.40
2018-02-24T05:04:42.072Z,-0.50
2018-02-24T05:05:13.680Z,-0.50
2018-02-24T05:05:45.300Z,-0.50
2018-02-24T05:06:16.942Z,-0.50
2018-02-24T05:06:48.587Z,-0.50
2018-02-24T05:07:20.284Z,-0.50
2018-02-24T05:07:51.900Z,-0.50
2018-02-24T05:08:23.526Z,-0.50
2018-02-24T05:08:55.166Z,-0.50
2018-02-24T05:09:26.806Z,-0.60
2018-02-24T05:09:58.442Z,-0.50
2018-02-24T05:10:30.061Z,-0.60
2018-02-24T05:11:01.665Z,-0.60
2018-02-24T05:11:33.292Z,-0.60
2018-02-24T05:12:04.929Z,-0.50
2018-02-24T05:12:36.558Z,-0.50
2018-02-24T05:13:08.164Z,-0.50
2018-02-24T05:13:39.798Z,-0.50
2018-02-24T05:14:11.422Z,-0.50
2018-02-24T05:14:43.027Z,-0.50
2018-02-24T05:15:14.672Z,-0.50
2018-02-24T05:15:46.300Z,-0.60
2018-02-24T05:16:17.900Z,-0.60
2018-02-24T05:16:49.523Z,-0.70
2018-02-24T05:17:21.156Z,-0.60
2018-02-24T05:17:52.772Z,-0.60
2018-02-24T05:18:24.364Z,-0.60
2018-02-24T05:18:55.976Z,-0.70
2018-02-24T05:19:27.592Z,-0.60
2018-02-24T05:19:59.200Z,-0.60
2018-02-24T05:20:30.856Z,-0.60
2018-02-24T05:21:02.488Z,-0.60
2018-02-24T05:21:34.103Z,-0.60
2018-02-24T05:22:05.714Z,-0.60
2018-02-24T05:22:37.340Z,-0.70
2018-02-24T05:23:08.966Z,-0.60
2018-02-24T05:23:40.585Z,-0.60
2018-02-24T05:24:12.194Z,-0.60
2018-02-24T05:24:43.816Z,-0.60
2018-02-24T05:25:15.498Z,-0.60
2018-02-24T05:25:47.140Z,-0.50
2018-02-24T05:26:18.764Z,-0.60
2018-02-24T05:26:50.386Z,-0.60
2018-02-24T05:27:22.027Z,-0.60
2018-02-24T05:27:53.663Z,-0.50
2018-02-24T05:28:25.325Z,-0.60
2018-02-24T05:28:56.944Z,-0.60
2018-02-24T05:29:28.553Z,-0.50
2018-02-24T05:30:00.163Z,-0.60
2018-02-24T05:30:31.814Z,-0.50
2018-02-24T05:31:03.446Z,-0.50
2018-02-24T05:31:35.056Z,-0.50
2018-02-24T05:32:06.692Z,-0.60
2018-02-24T05:32:38.320Z,-0.50
2018-02-24T05:33:09.949Z,-0.60
2018-02-24T05:33:41.545Z,-0.60
2018-02-24T05:34:13.166Z,-0.60
2018-02-24T05:34:44.792Z,-0.60
2018-02-24T05:35:16.483Z,-0.60
2018-02-24T05:35:48.098Z,-0.50
2018-02-24T05:36:19.735Z,-0.60
2018-02-24T05:36:51.351Z,-0.60
2018-02-24T05:37:22.970Z,-0.60
2018-02-24T05:37:54.608Z,-0.60
2018-02-24T05:38:26.241Z,-0.60
2018-02-24T05:38:57.860Z,-0.60
2018-02-24T05:39:29.495Z,-0.60
2018-02-24T05:40:01.134Z,-0.50
2018-02-24T05:40:32.792Z,-0.50
2018-02-24T05:41:04.440Z,-0.50
2018-02-24T05:41:36.038Z,-0.60
2018-02-24T05:42:07.680Z,-0.60
2018-02-24T05:42:39.300Z,-0.50
2018-02-24T05:43:10.926Z,-0.60
2018-02-24T05:43:42.544Z,-0.50
2018-02-24T05:44:14.161Z,-0.60
2018-02-24T05:44:45.782Z,-0.50
2018-02-24T05:45:17.401Z,-0.50
2018-02-24T05:45:49.024Z,-0.60
2018-02-24T05:46:20.644Z,-0.60
2018-02-24T05:46:52.264Z,-0.50
2018-02-24T05:47:23.879Z,-0.60
2018-02-24T05:47:55.517Z,-0.60
2018-02-24T05:48:27.144Z,-0.70
2018-02-24T05:48:58.766Z,-0.60
2018-02-24T05:49:30.384Z,-0.50
2018-02-24T05:50:02.025Z,-0.50
2018-02-24T05:50:33.661Z,-0.50
2018-02-24T05:51:05.302Z,-0.60
2018-02-24T05:51:36.936Z,-0.60
2018-02-24T05:52:08.562Z,-0.50
2018-02-24T05:52:40.185Z,-0.60
2018-02-24T05:53:11.820Z,-0.60
2018-02-24T05:53:43.461Z,-0.60
2018-02-24T05:54:15.087Z,-0.50
2018-02-24T05:54:46.711Z,-0.60
2018-02-24T05:55:18.348Z,-0.60
2018-02-24T05:55:49.956Z,-0.50
2018-02-24T05:56:21.560Z,-0.50
2018-02-24T05:56:53.248Z,-0.60
2018-02-24T05:57:24.902Z,-0.50
2018-02-24T05:57:56.556Z,-0.50
2018-02-24T05:58:28.199Z,-0.60
2018-02-24T05:58:59.828Z,-0.50
2018-02-24T05:59:31.452Z,-0.60
2018-02-24T06:00:03.132Z,-0.60
2018-02-24T06:00:34.765Z,-0.60
2018-02-24T06:01:06.401Z,-0.60
2018-02-24T06:01:38.078Z,-0.50
2018-02-24T06:02:09.722Z,-0.60
2018-02-24T06:02:41.346Z,-0.50
2018-02-24T06:03:12.948Z,-0.60
2018-02-24T06:03:44.554Z,-0.50
2018-02-24T06:04:16.228Z,-0.50
2018-02-24T06:04:47.860Z,-0.60
2018-02-24T06:05:19.485Z,-0.50
2018-02-24T06:05:51.106Z,-0.50
2018-02-24T06:06:22.745Z,-0.60
2018-02-24T06:06:54.378Z,-0.50
2018-02-24T06:07:26.040Z,-0.60
2018-02-24T06:07:57.647Z,-0.50
2018-02-24T06:08:29.292Z,-0.50
2018-02-24T06:09:00.940Z,-0.50
2018-02-24T06:09:32.589Z,-0.50
2018-02-24T06:10:04.248Z,-0.40
2018-02-24T06:10:35.860Z,-0.50
2018-02-24T06:11:07.547Z,-0.50
2018-02-24T06:11:39.187Z,-0.50
2018-02-24T06:12:10.816Z,-0.50
2018-02-24T06:12:42.463Z,-0.50
2018-02-24T06:13:14.079Z,-0.50
2018-02-24T06:13:45.704Z,-0.50
2018-02-24T06:14:17.333Z,-0.40
2018-02-24T06:14:48.964Z,-0.50
2018-02-24T06:15:20.597Z,-0.50
2018-02-24T06:15:52.254Z,-0.40
2018-02-24T06:16:23.888Z,-0.50
2018-02-24T06:16:55.504Z,-0.50
2018-02-24T06:17:27.128Z,-0.40
2018-02-24T06:17:58.820Z,-0.40
2018-02-24T06:18:30.428Z,-0.50
2018-02-24T06:19:02.060Z,-0.50
2018-02-24T06:19:33.672Z,-0.50
2018-02-24T06:20:05.324Z,-0.50
2018-02-24T06:20:36.946Z,-0.40
2018-02-24T06:21:08.565Z,-0.40
2018-02-24T06:21:40.186Z,-0.40
2018-02-24T06:22:11.814Z,-0.50
2018-02-24T06:22:43.458Z,-0.40
2018-02-24T06:23:15.079Z,-0.50
2018-02-24T06:23:46.690Z,-0.40
2018-02-24T06:24:18.292Z,-0.40
2018-02-24T06:24:49.953Z,-0.50
2018-02-24T06:25:21.580Z,-0.40
2018-02-24T06:25:53.208Z,-0.30
2018-02-24T06:26:24.886Z,-0.40
2018-02-24T06:26:56.520Z,-0.40
2018-02-24T06:27:28.158Z,-0.40
2018-02-24T06:27:59.790Z,-0.40
2018-02-24T06:28:31.414Z,-0.40
2018-02-24T06:29:03.062Z,-0.40
2018-02-24T06:29:34.700Z,-0.40
2018-02-24T06:30:06.323Z,-0.40
2018-02-24T06:30:37.991Z,-0.40
2018-02-24T06:31:09.598Z,-0.30
2018-02-24T06:31:41.264Z,-0.40
2018-02-24T06:32:12.906Z,-0.40
2018-02-24T06:32:44.520Z,-0.40
2018-02-24T06:33:16.154Z,-0.30
2018-02-24T06:33:47.777Z,-0.40
2018-02-24T06:34:19.392Z,-0.40
2018-02-24T06:34:51.044Z,-0.40
2018-02-24T06:35:22.706Z,-0.30
2018-02-24T06:35:54.369Z,-0.40
2018-02-24T06:36:26.024Z,-0.30
2018-02-24T06:36:57.622Z,-0.40
2018-02-24T06:37:29.272Z,-0.40
2018-02-24T06:38:00.922Z,-0.30
2018-02-24T06:38:32.584Z,-0.40
2018-02-24T06:39:04.263Z,-0.40
2018-02-24T06:39:35.938Z,-0.40
2018-02-24T06:40:07.598Z,-0.40
2018-02-24T06:40:39.236Z,-0.40
2018-02-24T06:41:10.920Z,-0.30
2018-02-24T06:41:42.536Z,-0.30
2018-02-24T06:42:14.166Z,-0.30
2018-02-24T06:42:45.800Z,-0.30
2018-02-24T06:43:17.426Z,-0.40
2018-02-24T06:43:49.072Z,-0.30
2018-02-24T06:44:20.674Z,-0.30
2018-02-24T06:44:52.316Z,-0.40
2018-02-24T06:45:23.962Z,-0.30
2018-02-24T06:45:55.592Z,-0.30
2018-02-24T06:46:27.249Z,-0.30
2018-02-24T06:46:58.878Z,-0.30
2018-02-24T06:47:30.484Z,-0.30
2018-02-24T06:48:02.116Z,-0.30
2018-02-24T06:48:33.752Z,-0.30
2018-02-24T06:49:05.370Z,-0.30
2018-02-24T06:49:36.995Z,-0.30
2018-02-24T06:50:08.671Z,-0.20
2018-02-24T06:50:40.308Z,-0.30
2018-02-24T06:51:11.944Z,-0.30
2018-02-24T06:51:43.580Z,-0.30
2018-02-24T06:52:15.220Z,-0.30
2018-02-24T06:52:46.820Z,-0.30